Eagle County Regional Airport
KEGE : now visible

Aeroporto :











RITROVATECI SU...

 
LOGIN :

Iscrizione | Disclaimer

   EN    FR    IT 

 









Sommario :    VFR   VFR Marginale   IFR   IFR Intensivo   IFR Molto Intensivo
Visibilità : 
Base nubi : 
>= 8 km
>= 3000ft
5 / 8 km
1000 / 3000 ft
1500m / 5 km
500 / 1000 ft
800 / 1500m
200 / 500 ft
< 800m
< 200 ft
Simboli :   Temporali  Nebbia  Neve Forte  Precipitazioni Forti  Vento > 20 kt






- Altitudine del aeroporto : 6548 ft
- Codice IATA : EGE


KEGE - Eagle County Regional

ULTIMO METAR :
  • 190456Z AUTO 00000KT 10SM CLR 17/09 A3038 RMK AO2 SLP177 T01720094 PNO $

METARs OBSOLETI :
  • 190356Z AUTO 07004KT 10SM CLR 19/11 A3037 RMK AO2 SLP174 T01890106 PNO $
  • 190256Z AUTO 12004KT 10SM SCT120 22/10 A3035 RMK AO2 SLP169 6//// T02170100 53013 PNO $
  • 190156Z AUTO 10007KT 10SM CLR 23/10 A3033 RMK AO2 SLP164 T02280100 PNO $
  • 190056Z 06008KT 10SM BKN120 23/11 A3032 RMK AO2 TSB01E16RAE08 SLP161 T02280106 PNO $

TAF KEGE
Valido dal 19 a 00 ore il 20 a 00 ore UTC


182320Z 1900/1924 28008KT P6SM VCTS BKN100CB
FM190300 07005KT P6SM SCT100 BKN250
FM190600 11003KT P6SM FEW100 FEW200
FM191800 28005KT P6SM SCT090
FIR KZDV / America del Nord



MetMap, La meteo Aeronautica in un colpo d'occhio ! - Copyright ORBIFLY Dicembre 2007 - Disclaimer

ORBIFLY MET'MAP TEAM :

Programmazione e sviluppo : Alexandra Zaïnal
Concezione : Baudouin d'Aumeries
Supporto tecnico e logistico : Manuel Goepfert
Aiuto : Marc-Olivier Méhu
Aiuto per la traduzione : Arnaldo La Scala




FONTI E CREDITI :

   NOAA       Earth
Advisory